sensor_id;sensor_type;location;lat;lon;timestamp;pressure;altitude;pressure_sealevel;temperature;humidity
11830;BME280;5972;42.134;24.718;2022-11-20T00:00:03;99122.00;;;13.15;100.00
11830;BME280;5972;42.134;24.718;2022-11-20T00:02:30;99122.50;;;13.24;100.00
11830;BME280;5972;42.134;24.718;2022-11-20T00:04:57;99128.28;;;13.23;100.00
11830;BME280;5972;42.134;24.718;2022-11-20T00:07:23;99144.16;;;13.21;100.00
11830;BME280;5972;42.134;24.718;2022-11-20T00:09:50;99127.28;;;13.35;100.00
11830;BME280;5972;42.134;24.718;2022-11-20T00:12:17;99129.91;;;13.27;100.00
11830;BME280;5972;42.134;24.718;2022-11-20T00:14:45;99123.84;;;13.41;100.00
11830;BME280;5972;42.134;24.718;2022-11-20T00:17:12;99125.78;;;13.41;100.00
11830;BME280;5972;42.134;24.718;2022-11-20T00:19:38;99139.41;;;13.44;100.00
11830;BME280;5972;42.134;24.718;2022-11-20T00:22:05;99132.47;;;13.50;100.00
11830;BME280;5972;42.134;24.718;2022-11-20T00:24:32;99128.53;;;13.44;100.00
11830;BME280;5972;42.134;24.718;2022-11-20T00:26:59;99104.91;;;13.48;100.00
11830;BME280;5972;42.134;24.718;2022-11-20T00:29:25;99122.31;;;13.44;100.00
11830;BME280;5972;42.134;24.718;2022-11-20T00:31:54;99148.09;;;13.23;100.00
11830;BME280;5972;42.134;24.718;2022-11-20T00:34:20;99135.66;;;13.22;100.00
11830;BME280;5972;42.134;24.718;2022-11-20T00:36:47;99129.19;;;13.34;100.00
11830;BME280;5972;42.134;24.718;2022-11-20T00:39:14;99106.00;;;13.44;100.00
11830;BME280;5972;42.134;24.718;2022-11-20T00:41:41;99110.78;;;13.54;100.00
11830;BME280;5972;42.134;24.718;2022-11-20T00:44:07;99132.47;;;13.50;100.00
11830;BME280;5972;42.134;24.718;2022-11-20T00:46:34;99111.53;;;13.17;100.00
11830;BME280;5972;42.134;24.718;2022-11-20T00:49:03;99125.66;;;13.30;100.00
11830;BME280;5972;42.134;24.718;2022-11-20T00:51:29;99130.91;;;13.49;100.00
11830;BME280;5972;42.134;24.718;2022-11-20T00:53:57;99151.16;;;13.52;100.00
11830;BME280;5972;42.134;24.718;2022-11-20T00:56:25;99125.66;;;13.30;100.00
11830;BME280;5972;42.134;24.718;2022-11-20T00:58:52;99144.13;;;13.47;100.00
11830;BME280;5972;42.134;24.718;2022-11-20T01:01:20;99128.03;;;13.31;100.00
11830;BME280;5972;42.134;24.718;2022-11-20T01:03:50;99132.13;;;13.52;100.00
11830;BME280;5972;42.134;24.718;2022-11-20T01:06:20;99134.19;;;13.65;100.00
11830;BME280;5972;42.134;24.718;2022-11-20T01:08:48;99134.97;;;13.66;100.00
11830;BME280;5972;42.134;24.718;2022-11-20T01:11:17;99128.34;;;13.63;100.00
11830;BME280;5972;42.134;24.718;2022-11-20T01:13:45;99132.44;;;13.84;100.00
11830;BME280;5972;42.134;24.718;2022-11-20T01:16:14;99116.13;;;13.84;100.00
11830;BME280;5972;42.134;24.718;2022-11-20T01:18:43;99092.06;;;13.86;100.00
11830;BME280;5972;42.134;24.718;2022-11-20T01:21:12;99125.75;;;13.74;100.00
11830;BME280;5972;42.134;24.718;2022-11-20T01:23:41;99123.66;;;13.60;100.00
11830;BME280;5972;42.134;24.718;2022-11-20T01:26:11;99116.97;;;13.54;100.00
11830;BME280;5972;42.134;24.718;2022-11-20T01:28:38;99071.81;;;13.39;100.00
11830;BME280;5972;42.134;24.718;2022-11-20T01:31:17;99085.00;;;13.37;100.00
11830;BME280;5972;42.134;24.718;2022-11-20T01:33:45;99081.09;;;13.38;100.00
11830;BME280;5972;42.134;24.718;2022-11-20T01:36:13;99105.22;;;13.43;100.00
11830;BME280;5972;42.134;24.718;2022-11-20T01:38:41;99091.44;;;13.59;100.00
11830;BME280;5972;42.134;24.718;2022-11-20T01:41:10;99091.09;;;13.64;100.00
11830;BME280;5972;42.134;24.718;2022-11-20T01:43:57;99079.88;;;13.69;100.00
11830;BME280;5972;42.134;24.718;2022-11-20T01:46:23;99078.09;;;13.47;100.00
11830;BME280;5972;42.134;24.718;2022-11-20T01:48:54;99068.00;;;13.47;100.00
11830;BME280;5972;42.134;24.718;2022-11-20T01:51:27;99082.75;;;13.46;100.00
11830;BME280;5972;42.134;24.718;2022-11-20T01:53:59;99077.06;;;13.62;100.00
11830;BME280;5972;42.134;24.718;2022-11-20T01:56:28;99074.69;;;13.57;100.00
11830;BME280;5972;42.134;24.718;2022-11-20T01:58:58;99067.75;;;13.59;100.00
11830;BME280;5972;42.134;24.718;2022-11-20T02:01:26;99070.84;;;13.61;100.00
11830;BME280;5972;42.134;24.718;2022-11-20T02:03:53;99070.56;;;13.73;100.00
11830;BME280;5972;42.134;24.718;2022-11-20T02:06:24;99073.72;;;13.76;100.00
11830;BME280;5972;42.134;24.718;2022-11-20T02:08:52;99062.09;;;13.82;100.00
11830;BME280;5972;42.134;24.718;2022-11-20T02:11:21;99049.69;;;13.85;100.00
11830;BME280;5972;42.134;24.718;2022-11-20T02:13:48;99062.41;;;13.73;100.00
11830;BME280;5972;42.134;24.718;2022-11-20T02:16:19;99065.56;;;13.79;100.00
11830;BME280;5972;42.134;24.718;2022-11-20T02:18:46;99057.84;;;13.81;100.00
11830;BME280;5972;42.134;24.718;2022-11-20T02:21:23;99061.41;;;13.92;100.00
11830;BME280;5972;42.134;24.718;2022-11-20T02:24:13;99051.63;;;13.84;100.00
11830;BME280;5972;42.134;24.718;2022-11-20T02:26:46;99049.75;;;13.92;100.00
11830;BME280;5972;42.134;24.718;2022-11-20T02:29:17;99025.13;;;13.70;100.00
11830;BME280;5972;42.134;24.718;2022-11-20T02:31:46;99035.66;;;13.76;100.00
11830;BME280;5972;42.134;24.718;2022-11-20T02:34:13;99042.34;;;13.89;100.00
11830;BME280;5972;42.134;24.718;2022-11-20T02:36:41;99023.63;;;13.80;100.00
11830;BME280;5972;42.134;24.718;2022-11-20T02:39:10;99023.59;;;13.77;100.00
11830;BME280;5972;42.134;24.718;2022-11-20T02:41:39;99022.91;;;13.87;100.00
11830;BME280;5972;42.134;24.718;2022-11-20T02:44:06;99006.97;;;13.89;100.00
11830;BME280;5972;42.134;24.718;2022-11-20T02:46:33;99024.56;;;14.02;100.00
11830;BME280;5972;42.134;24.718;2022-11-20T02:49:01;99035.03;;;14.00;100.00
11830;BME280;5972;42.134;24.718;2022-11-20T02:51:28;99056.00;;;13.96;100.00
11830;BME280;5972;42.134;24.718;2022-11-20T02:53:55;99039.38;;;14.08;100.00
11830;BME280;5972;42.134;24.718;2022-11-20T02:56:22;99054.59;;;14.16;100.00
11830;BME280;5972;42.134;24.718;2022-11-20T02:58:50;99056.56;;;14.19;100.00
11830;BME280;5972;42.134;24.718;2022-11-20T03:01:17;99027.84;;;14.29;100.00
11830;BME280;5972;42.134;24.718;2022-11-20T03:03:43;99026.69;;;14.26;100.00
11830;BME280;5972;42.134;24.718;2022-11-20T03:06:10;99030.97;;;14.31;100.00
11830;BME280;5972;42.134;24.718;2022-11-20T03:08:37;99027.09;;;14.35;100.00
11830;BME280;5972;42.134;24.718;2022-11-20T03:11:06;99041.50;;;14.36;100.00
11830;BME280;5972;42.134;24.718;2022-11-20T03:13:34;99045.00;;;14.36;100.00
11830;BME280;5972;42.134;24.718;2022-11-20T03:16:12;99022.16;;;14.48;100.00
11830;BME280;5972;42.134;24.718;2022-11-20T03:18:40;99037.72;;;14.54;100.00
11830;BME280;5972;42.134;24.718;2022-11-20T03:21:07;99027.19;;;14.49;100.00
11830;BME280;5972;42.134;24.718;2022-11-20T03:23:35;99014.47;;;14.64;100.00
11830;BME280;5972;42.134;24.718;2022-11-20T03:26:10;99020.31;;;14.77;100.00
11830;BME280;5972;42.134;24.718;2022-11-20T03:28:37;99021.09;;;14.74;100.00
11830;BME280;5972;42.134;24.718;2022-11-20T03:31:06;98988.72;;;14.54;100.00
11830;BME280;5972;42.134;24.718;2022-11-20T03:33:35;99012.16;;;14.70;100.00
11830;BME280;5972;42.134;24.718;2022-11-20T03:36:03;99014.91;;;14.80;100.00
11830;BME280;5972;42.134;24.718;2022-11-20T03:38:30;99010.56;;;14.65;100.00
11830;BME280;5972;42.134;24.718;2022-11-20T03:41:00;99019.09;;;14.60;100.00
11830;BME280;5972;42.134;24.718;2022-11-20T03:43:27;99039.16;;;14.34;100.00
11830;BME280;5972;42.134;24.718;2022-11-20T03:45:54;99052.91;;;14.52;100.00
11830;BME280;5972;42.134;24.718;2022-11-20T03:48:21;99020.25;;;14.55;100.00
11830;BME280;5972;42.134;24.718;2022-11-20T03:50:50;99040.13;;;14.60;100.00
11830;BME280;5972;42.134;24.718;2022-11-20T03:53:17;99030.38;;;14.59;100.00
11830;BME280;5972;42.134;24.718;2022-11-20T03:55:44;99048.56;;;14.44;100.00
11830;BME280;5972;42.134;24.718;2022-11-20T03:58:10;99035.38;;;14.49;100.00
11830;BME280;5972;42.134;24.718;2022-11-20T04:00:38;99021.84;;;14.64;100.00
11830;BME280;5972;42.134;24.718;2022-11-20T04:03:05;99036.25;;;14.71;100.00
11830;BME280;5972;42.134;24.718;2022-11-20T04:05:33;99033.53;;;14.71;100.00
11830;BME280;5972;42.134;24.718;2022-11-20T04:08:01;99015.19;;;14.57;100.00
11830;BME280;5972;42.134;24.718;2022-11-20T04:10:28;99044.81;;;14.70;100.00
11830;BME280;5972;42.134;24.718;2022-11-20T04:12:55;99048.38;;;14.81;100.00
11830;BME280;5972;42.134;24.718;2022-11-20T04:15:21;99036.72;;;14.87;100.00
11830;BME280;5972;42.134;24.718;2022-11-20T04:17:48;99048.78;;;14.93;100.00
11830;BME280;5972;42.134;24.718;2022-11-20T04:20:15;99063.88;;;14.73;100.00
11830;BME280;5972;42.134;24.718;2022-11-20T04:22:42;99073.53;;;14.56;100.00
11830;BME280;5972;42.134;24.718;2022-11-20T04:25:10;99066.63;;;14.73;100.00
11830;BME280;5972;42.134;24.718;2022-11-20T04:27:37;99057.69;;;14.80;100.00
11830;BME280;5972;42.134;24.718;2022-11-20T04:30:04;99034.41;;;14.93;100.00
11830;BME280;5972;42.134;24.718;2022-11-20T04:32:31;99041.44;;;14.97;100.00
11830;BME280;5972;42.134;24.718;2022-11-20T04:34:58;99054.22;;;14.86;100.00
11830;BME280;5972;42.134;24.718;2022-11-20T04:37:25;99060.84;;;14.82;100.00
11830;BME280;5972;42.134;24.718;2022-11-20T04:39:51;99056.50;;;14.77;100.00
11830;BME280;5972;42.134;24.718;2022-11-20T04:42:20;99058.06;;;14.75;100.00
11830;BME280;5972;42.134;24.718;2022-11-20T04:44:56;99041.00;;;14.88;100.00
11830;BME280;5972;42.134;24.718;2022-11-20T04:47:23;99039.09;;;15.10;100.00
11830;BME280;5972;42.134;24.718;2022-11-20T04:49:50;99023.97;;;15.27;100.00
11830;BME280;5972;42.134;24.718;2022-11-20T04:52:17;99031.41;;;15.40;100.00
11830;BME280;5972;42.134;24.718;2022-11-20T04:54:44;99059.81;;;15.29;100.00
11830;BME280;5972;42.134;24.718;2022-11-20T04:57:13;99036.38;;;15.10;100.00
11830;BME280;5972;42.134;24.718;2022-11-20T04:59:41;99050.41;;;15.09;100.00
11830;BME280;5972;42.134;24.718;2022-11-20T05:02:08;99042.66;;;15.25;100.00
11830;BME280;5972;42.134;24.718;2022-11-20T05:04:34;99034.50;;;15.35;100.00
11830;BME280;5972;42.134;24.718;2022-11-20T05:07:01;99045.00;;;15.19;100.00
11830;BME280;5972;42.134;24.718;2022-11-20T05:09:28;99048.50;;;15.20;100.00
11830;BME280;5972;42.134;24.718;2022-11-20T05:11:55;99064.44;;;15.21;100.00
11830;BME280;5972;42.134;24.718;2022-11-20T05:14:21;99074.97;;;15.19;100.00
11830;BME280;5972;42.134;24.718;2022-11-20T05:16:50;99076.47;;;15.03;100.00
11830;BME280;5972;42.134;24.718;2022-11-20T05:19:16;99058.56;;;15.02;100.00
11830;BME280;5972;42.134;24.718;2022-11-20T05:21:43;99062.13;;;15.27;100.00
11830;BME280;5972;42.134;24.718;2022-11-20T05:24:10;99067.22;;;15.32;100.00
11830;BME280;5972;42.134;24.718;2022-11-20T05:26:37;99071.81;;;15.10;100.00
11830;BME280;5972;42.134;24.718;2022-11-20T05:29:04;99056.28;;;15.18;100.00
11830;BME280;5972;42.134;24.718;2022-11-20T05:31:30;99060.59;;;15.26;100.00
11830;BME280;5972;42.134;24.718;2022-11-20T05:33:58;99064.09;;;15.26;100.00
11830;BME280;5972;42.134;24.718;2022-11-20T05:36:25;99050.06;;;15.21;100.00
11830;BME280;5972;42.134;24.718;2022-11-20T05:38:52;99053.53;;;15.18;100.00
11830;BME280;5972;42.134;24.718;2022-11-20T05:41:20;99011.88;;;15.03;100.00
11830;BME280;5972;42.134;24.718;2022-11-20T05:43:48;99049.28;;;15.20;100.00
11830;BME280;5972;42.134;24.718;2022-11-20T05:46:17;99053.53;;;15.18;100.00
11830;BME280;5972;42.134;24.718;2022-11-20T05:48:44;99066.63;;;14.77;100.00
11830;BME280;5972;42.134;24.718;2022-11-20T05:51:15;99072.84;;;14.77;100.00
11830;BME280;5972;42.134;24.718;2022-11-20T05:53:43;99051.84;;;14.74;100.00
11830;BME280;5972;42.134;24.718;2022-11-20T05:56:11;99024.94;;;14.66;100.00
11830;BME280;5972;42.134;24.718;2022-11-20T05:58:39;99070.41;;;14.54;100.00
11830;BME280;5972;42.134;24.718;2022-11-20T06:01:07;99051.00;;;14.63;100.00
11830;BME280;5972;42.134;24.718;2022-11-20T06:03:34;99051.34;;;14.51;100.00
11830;BME280;5972;42.134;24.718;2022-11-20T06:06:01;99040.81;;;14.46;100.00
11830;BME280;5972;42.134;24.718;2022-11-20T06:08:30;99068.56;;;14.73;100.00
11830;BME280;5972;42.134;24.718;2022-11-20T06:10:57;99057.75;;;14.87;100.00
11830;BME280;5972;42.134;24.718;2022-11-20T06:13:25;99064.34;;;14.89;100.00
11830;BME280;5972;42.134;24.718;2022-11-20T06:15:52;99082.25;;;14.94;100.00
11830;BME280;5972;42.134;24.718;2022-11-20T06:18:19;99067.53;;;15.09;100.00
11830;BME280;5972;42.134;24.718;2022-11-20T06:20:46;99064.00;;;15.05;100.00
11830;BME280;5972;42.134;24.718;2022-11-20T06:23:13;99072.09;;;14.80;100.00
11830;BME280;5972;42.134;24.718;2022-11-20T06:25:42;99083.88;;;15.02;100.00
11830;BME280;5972;42.134;24.718;2022-11-20T06:28:09;99102.94;;;15.06;100.00
11830;BME280;5972;42.134;24.718;2022-11-20T06:30:36;99089.34;;;15.16;100.00
11830;BME280;5972;42.134;24.718;2022-11-20T06:33:03;99088.63;;;15.26;100.00
11830;BME280;5972;42.134;24.718;2022-11-20T06:35:30;99077.38;;;15.46;100.00
11830;BME280;5972;42.134;24.718;2022-11-20T06:37:56;99085.16;;;15.51;100.00
11830;BME280;5972;42.134;24.718;2022-11-20T06:40:23;99098.84;;;15.68;100.00
11830;BME280;5972;42.134;24.718;2022-11-20T06:42:53;99080.94;;;15.64;100.00
11830;BME280;5972;42.134;24.718;2022-11-20T06:45:20;99081.34;;;15.80;100.00
11830;BME280;5972;42.134;24.718;2022-11-20T06:47:47;99089.13;;;15.78;100.00
11830;BME280;5972;42.134;24.718;2022-11-20T06:50:14;99073.53;;;15.89;100.00
11830;BME280;5972;42.134;24.718;2022-11-20T06:52:41;99076.28;;;15.86;100.00
11830;BME280;5972;42.134;24.718;2022-11-20T06:55:08;99081.75;;;15.93;100.00
11830;BME280;5972;42.134;24.718;2022-11-20T06:57:34;99091.47;;;16.01;100.00
11830;BME280;5972;42.134;24.718;2022-11-20T07:00:03;99105.91;;;16.05;100.00
11830;BME280;5972;42.134;24.718;2022-11-20T07:02:30;99110.19;;;16.06;100.00
11830;BME280;5972;42.134;24.718;2022-11-20T07:04:57;99101.22;;;16.09;100.00
11830;BME280;5972;42.134;24.718;2022-11-20T07:07:24;99092.66;;;16.14;100.00
11830;BME280;5972;42.134;24.718;2022-11-20T07:09:51;99080.53;;;16.29;100.00
11830;BME280;5972;42.134;24.718;2022-11-20T07:12:17;99087.59;;;16.09;100.00
11830;BME280;5972;42.134;24.718;2022-11-20T07:14:44;99107.88;;;15.94;100.00
11830;BME280;5972;42.134;24.718;2022-11-20T07:17:12;99086.03;;;16.04;100.00
11830;BME280;5972;42.134;24.718;2022-11-20T07:19:39;99102.41;;;16.15;100.00
11830;BME280;5972;42.134;24.718;2022-11-20T07:22:06;99101.59;;;16.29;100.00
11830;BME280;5972;42.134;24.718;2022-11-20T07:24:33;99103.91;;;16.44;100.00
11830;BME280;5972;42.134;24.718;2022-11-20T07:27:00;99102.75;;;16.45;100.00
11830;BME280;5972;42.134;24.718;2022-11-20T07:29:27;99096.09;;;16.68;100.00
11830;BME280;5972;42.134;24.718;2022-11-20T07:31:53;99101.53;;;16.78;100.00
11830;BME280;5972;42.134;24.718;2022-11-20T07:34:22;99101.59;;;16.43;100.00
11830;BME280;5972;42.134;24.718;2022-11-20T07:36:49;99120.72;;;16.36;100.00
11830;BME280;5972;42.134;24.718;2022-11-20T07:39:16;99127.72;;;16.30;100.00
11830;BME280;5972;42.134;24.718;2022-11-20T07:41:42;99129.66;;;16.40;100.00
11830;BME280;5972;42.134;24.718;2022-11-20T07:44:09;99134.75;;;16.31;100.00
11830;BME280;5972;42.134;24.718;2022-11-20T07:46:36;99129.25;;;16.52;100.00
11830;BME280;5972;42.134;24.718;2022-11-20T07:49:03;99122.25;;;16.65;100.00
11830;BME280;5972;42.134;24.718;2022-11-20T07:51:31;99117.97;;;16.60;100.00
11830;BME280;5972;42.134;24.718;2022-11-20T07:53:58;99126.16;;;16.53;100.00
11830;BME280;5972;42.134;24.718;2022-11-20T07:56:25;99118.75;;;16.65;100.00
11830;BME280;5972;42.134;24.718;2022-11-20T07:58:52;99103.09;;;16.72;100.00
11830;BME280;5972;42.134;24.718;2022-11-20T08:01:18;99103.09;;;16.76;100.00
11830;BME280;5972;42.134;24.718;2022-11-20T08:03:45;99102.69;;;16.84;100.00
11830;BME280;5972;42.134;24.718;2022-11-20T08:06:12;99105.75;;;16.97;100.00
11830;BME280;5972;42.134;24.718;2022-11-20T08:08:41;99104.97;;;17.03;100.00
11830;BME280;5972;42.134;24.718;2022-11-20T08:11:08;99112.03;;;16.94;100.00
11830;BME280;5972;42.134;24.718;2022-11-20T08:13:48;99130.00;;;16.91;100.00
11830;BME280;5972;42.134;24.718;2022-11-20T08:16:32;99118.56;;;17.21;100.00
11830;BME280;5972;42.134;24.718;2022-11-20T08:18:59;99111.81;;;17.40;100.00
11830;BME280;5972;42.134;24.718;2022-11-20T08:21:26;99114.94;;;17.42;100.00
11830;BME280;5972;42.134;24.718;2022-11-20T08:23:56;99115.63;;;17.64;100.00
11830;BME280;5972;42.134;24.718;2022-11-20T08:26:23;99117.88;;;17.72;100.00
11830;BME280;5972;42.134;24.718;2022-11-20T08:28:53;99104.63;;;18.63;100.00
11830;BME280;5972;42.134;24.718;2022-11-20T08:31:20;99128.25;;;19.56;100.00
11830;BME280;5972;42.134;24.718;2022-11-20T08:33:47;99127.63;;;19.71;100.00
11830;BME280;5972;42.134;24.718;2022-11-20T08:36:14;99129.94;;;19.42;100.00
11830;BME280;5972;42.134;24.718;2022-11-20T08:38:41;99124.63;;;19.28;100.00
11830;BME280;5972;42.134;24.718;2022-11-20T08:41:09;99120.09;;;20.02;100.00
11830;BME280;5972;42.134;24.718;2022-11-20T08:43:54;99117.59;;;20.58;100.00
11830;BME280;5972;42.134;24.718;2022-11-20T08:46:22;99098.22;;;21.44;100.00
11830;BME280;5972;42.134;24.718;2022-11-20T08:48:50;99110.25;;;22.18;100.00
11830;BME280;5972;42.134;24.718;2022-11-20T08:51:17;99099.34;;;23.30;100.00
11830;BME280;5972;42.134;24.718;2022-11-20T08:53:44;99096.56;;;24.44;88.69
11830;BME280;5972;42.134;24.718;2022-11-20T08:56:12;99076.41;;;25.00;80.30
11830;BME280;5972;42.134;24.718;2022-11-20T08:58:39;99077.88;;;25.44;75.41
11830;BME280;5972;42.134;24.718;2022-11-20T09:01:06;99075.53;;;26.14;67.84
11830;BME280;5972;42.134;24.718;2022-11-20T09:03:33;99087.44;;;27.05;60.59
11830;BME280;5972;42.134;24.718;2022-11-20T09:06:00;99084.22;;;27.58;56.21
11830;BME280;5972;42.134;24.718;2022-11-20T09:08:28;99076.03;;;27.54;55.82
11830;BME280;5972;42.134;24.718;2022-11-20T09:10:56;99080.94;;;27.92;53.21
11830;BME280;5972;42.134;24.718;2022-11-20T09:13:25;99085.44;;;28.61;50.32
11830;BME280;5972;42.134;24.718;2022-11-20T09:15:53;99076.09;;;28.73;48.88
11830;BME280;5972;42.134;24.718;2022-11-20T09:18:20;99063.28;;;28.67;48.74
11830;BME280;5972;42.134;24.718;2022-11-20T09:20:48;99054.59;;;28.35;48.58
11830;BME280;5972;42.134;24.718;2022-11-20T09:23:15;99073.63;;;28.04;50.46
11830;BME280;5972;42.134;24.718;2022-11-20T09:25:42;99055.03;;;27.62;53.05
11830;BME280;5972;42.134;24.718;2022-11-20T09:28:09;99042.81;;;27.18;54.89
11830;BME280;5972;42.134;24.718;2022-11-20T09:30:37;99043.19;;;26.93;54.99
11830;BME280;5972;42.134;24.718;2022-11-20T09:33:05;99043.50;;;26.85;55.04
11830;BME280;5972;42.134;24.718;2022-11-20T09:35:32;99032.56;;;26.36;55.90
11830;BME280;5972;42.134;24.718;2022-11-20T09:38:04;99029.59;;;25.85;59.02
11830;BME280;5972;42.134;24.718;2022-11-20T09:40:31;99032.22;;;26.16;58.71
11830;BME280;5972;42.134;24.718;2022-11-20T09:43:03;99022.81;;;25.95;61.31
11830;BME280;5972;42.134;24.718;2022-11-20T09:45:50;99008.75;;;25.62;63.72
11830;BME280;5972;42.134;24.718;2022-11-20T09:48:32;99001.91;;;25.14;63.00
11830;BME280;5972;42.134;24.718;2022-11-20T09:51:07;98998.59;;;24.98;65.22
11830;BME280;5972;42.134;24.718;2022-11-20T09:53:46;98997.44;;;26.33;59.81
11830;BME280;5972;42.134;24.718;2022-11-20T09:56:16;99013.44;;;27.35;52.76
11830;BME280;5972;42.134;24.718;2022-11-20T09:58:46;98992.75;;;27.36;52.11
11830;BME280;5972;42.134;24.718;2022-11-20T10:01:17;98994.97;;;26.44;54.27
11830;BME280;5972;42.134;24.718;2022-11-20T10:03:51;98992.91;;;25.72;58.94
11830;BME280;5972;42.134;24.718;2022-11-20T10:06:26;98988.13;;;25.23;64.32
11830;BME280;5972;42.134;24.718;2022-11-20T10:09:02;98995.91;;;25.16;66.47
11830;BME280;5972;42.134;24.718;2022-11-20T10:11:38;99004.00;;;24.79;68.45
11830;BME280;5972;42.134;24.718;2022-11-20T10:14:21;98990.25;;;24.45;71.58
11830;BME280;5972;42.134;24.718;2022-11-20T10:16:59;98971.66;;;24.24;73.08
11830;BME280;5972;42.134;24.718;2022-11-20T10:19:46;98986.03;;;24.19;75.62
11830;BME280;5972;42.134;24.718;2022-11-20T10:22:26;98981.91;;;24.01;78.02
11830;BME280;5972;42.134;24.718;2022-11-20T10:25:02;98987.47;;;23.76;78.76
11830;BME280;5972;42.134;24.718;2022-11-20T10:27:43;98982.75;;;23.64;82.87
11830;BME280;5972;42.134;24.718;2022-11-20T10:30:16;98976.91;;;23.49;83.88
11830;BME280;5972;42.134;24.718;2022-11-20T10:32:50;98961.78;;;23.54;87.38
11830;BME280;5972;42.134;24.718;2022-11-20T10:35:21;98966.06;;;23.68;87.79
11830;BME280;5972;42.134;24.718;2022-11-20T10:37:55;98964.63;;;23.63;87.99
11830;BME280;5972;42.134;24.718;2022-11-20T10:40:28;98983.06;;;23.79;87.38
11830;BME280;5972;42.134;24.718;2022-11-20T10:43:00;98983.72;;;23.83;84.73
11830;BME280;5972;42.134;24.718;2022-11-20T10:45:45;98956.66;;;23.78;82.24
11830;BME280;5972;42.134;24.718;2022-11-20T10:48:16;98943.50;;;23.69;84.46
11830;BME280;5972;42.134;24.718;2022-11-20T10:51:01;98941.91;;;23.46;88.83
11830;BME280;5972;42.134;24.718;2022-11-20T10:53:41;98941.56;;;23.19;94.03
11830;BME280;5972;42.134;24.718;2022-11-20T10:56:16;98938.50;;;23.17;94.99
11830;BME280;5972;42.134;24.718;2022-11-20T10:58:52;98947.88;;;23.19;95.48
11830;BME280;5972;42.134;24.718;2022-11-20T11:01:21;98941.13;;;23.08;97.52
11830;BME280;5972;42.134;24.718;2022-11-20T11:03:50;98946.53;;;23.24;99.10
11830;BME280;5972;42.134;24.718;2022-11-20T11:06:22;98942.13;;;23.27;98.98
11830;BME280;5972;42.134;24.718;2022-11-20T11:08:53;98930.19;;;23.30;95.63
11830;BME280;5972;42.134;24.718;2022-11-20T11:11:22;98927.75;;;23.32;96.67
11830;BME280;5972;42.134;24.718;2022-11-20T11:13:50;98905.59;;;23.10;97.42
11830;BME280;5972;42.134;24.718;2022-11-20T11:16:22;98909.56;;;23.09;100.00
11830;BME280;5972;42.134;24.718;2022-11-20T11:18:51;98909.47;;;23.12;100.00
11830;BME280;5972;42.134;24.718;2022-11-20T11:21:22;98880.44;;;23.08;100.00
11830;BME280;5972;42.134;24.718;2022-11-20T11:23:58;98901.50;;;23.27;97.65
11830;BME280;5972;42.134;24.718;2022-11-20T11:26:25;98896.75;;;23.15;94.97
11830;BME280;5972;42.134;24.718;2022-11-20T11:28:54;98893.00;;;23.21;87.74
11830;BME280;5972;42.134;24.718;2022-11-20T11:31:25;98876.69;;;23.02;89.06
11830;BME280;5972;42.134;24.718;2022-11-20T11:34:03;98892.59;;;23.10;95.14
11830;BME280;5972;42.134;24.718;2022-11-20T11:36:30;98872.50;;;22.97;96.44
11830;BME280;5972;42.134;24.718;2022-11-20T11:39:00;98899.88;;;23.04;100.00
11830;BME280;5972;42.134;24.718;2022-11-20T11:41:30;98872.03;;;22.61;100.00
11830;BME280;5972;42.134;24.718;2022-11-20T11:44:02;98892.47;;;22.76;100.00
11830;BME280;5972;42.134;24.718;2022-11-20T11:46:52;98905.00;;;22.64;100.00
11830;BME280;5972;42.134;24.718;2022-11-20T11:49:21;98901.47;;;22.51;100.00
11830;BME280;5972;42.134;24.718;2022-11-20T11:52:05;98899.13;;;22.37;100.00
11830;BME280;5972;42.134;24.718;2022-11-20T11:54:38;98891.81;;;22.18;100.00
11830;BME280;5972;42.134;24.718;2022-11-20T11:57:13;98886.25;;;22.05;100.00
11830;BME280;5972;42.134;24.718;2022-11-20T11:59:52;98904.53;;;21.99;100.00
11830;BME280;5972;42.134;24.718;2022-11-20T12:02:31;98901.53;;;21.77;100.00
11830;BME280;5972;42.134;24.718;2022-11-20T12:05:08;98899.53;;;21.94;100.00
11830;BME280;5972;42.134;24.718;2022-11-20T12:07:41;98892.84;;;21.95;100.00
11830;BME280;5972;42.134;24.718;2022-11-20T12:10:15;98890.41;;;21.97;100.00
11830;BME280;5972;42.134;24.718;2022-11-20T12:12:46;98879.72;;;21.99;100.00
11830;BME280;5972;42.134;24.718;2022-11-20T12:15:25;98883.94;;;22.04;100.00
11830;BME280;5972;42.134;24.718;2022-11-20T12:17:52;98883.69;;;21.98;100.00
11830;BME280;5972;42.134;24.718;2022-11-20T12:20:22;98874.72;;;21.94;100.00
11830;BME280;5972;42.134;24.718;2022-11-20T12:22:54;98884.94;;;22.10;100.00
11830;BME280;5972;42.134;24.718;2022-11-20T12:25:25;98884.88;;;22.26;100.00
11830;BME280;5972;42.134;24.718;2022-11-20T12:28:13;98876.81;;;22.19;100.00
11830;BME280;5972;42.134;24.718;2022-11-20T12:30:51;98868.38;;;21.97;100.00
11830;BME280;5972;42.134;24.718;2022-11-20T12:33:34;98873.88;;;21.97;100.00
11830;BME280;5972;42.134;24.718;2022-11-20T12:36:13;98870.81;;;22.08;100.00
11830;BME280;5972;42.134;24.718;2022-11-20T12:39:02;98875.28;;;22.18;100.00
11830;BME280;5972;42.134;24.718;2022-11-20T12:41:51;98859.41;;;22.22;97.63
11830;BME280;5972;42.134;24.718;2022-11-20T12:44:56;98864.25;;;22.30;88.61
11830;BME280;5972;42.134;24.718;2022-11-20T12:47:47;98858.66;;;22.34;84.26
11830;BME280;5972;42.134;24.718;2022-11-20T12:50:24;98856.38;;;22.45;81.59
11830;BME280;5972;42.134;24.718;2022-11-20T12:53:02;98865.88;;;22.57;85.95
11830;BME280;5972;42.134;24.718;2022-11-20T12:55:36;98859.34;;;22.63;86.28
11830;BME280;5972;42.134;24.718;2022-11-20T12:58:12;98861.56;;;22.56;86.89
11830;BME280;5972;42.134;24.718;2022-11-20T13:00:54;98866.59;;;22.57;87.90
11830;BME280;5972;42.134;24.718;2022-11-20T13:03:36;98876.31;;;22.49;90.00
11830;BME280;5972;42.134;24.718;2022-11-20T13:06:12;98871.78;;;22.43;85.95